Meteo Giornale » Osservazioni meteo Italia » Pratica Di Mare

ore: 12:55 - Osservazioni Meteo Pratica Di Mare
Lat. 41° 39' N Lon. 12° 27' E Alt. 6 metri s.l.m.

sereno Europe/Rome

24 °C

Sereno

Temp. 24 Ore

18 °C

24 °C

Sud/Sud-Ovest

9.3 Km/h

Dew point 13 °C

Umidità 50 %

Visibilità  10 Km

Il sole sorge alle ore 07:24

Il sole tramonta alle ore 18:25

Data e Ora Cielo e Fenomeni T °C DP °C Um. % Pres. hPa Vis. km Vento km/h
Oggi h: 12:55 sereno Sereno 24 13 50 1012 10 S/SO 9.3
Oggi h: 11:55 sereno Sereno 24 16 60 1012 10 N 5.5
Oggi h: 10:55 sereno Sereno 22 17 73 1012 10 N 3.7
Oggi h: 09:55 sereno Sereno 19 17 88 1012 10 N 7.4
Oggi h: 08:55 sereno Sereno 19 17 88 1012 10 N/NE 11.1
Oggi h: 07:55 sereno Sereno 18 17 93 1012 10 N/NE 14.8
Oggi h: 06:55 sereno Sereno 18 17 93 1012 10 N/NE 16.7
Oggi h: 05:55 poco_nuvoloso Poco Nuvoloso 19 18 93 1012 10 N/NE 18.5
Oggi h: 04:55 sereno Sereno 18 18 100 1012 10 N/NE 11.1
Oggi h: 03:55 sereno Sereno 18 17 93 1013 10 N/NE 13
Oggi h: 02:55 sereno Sereno 19 18 93 1013 10 NE 13
Oggi h: 01:55 sereno Sereno 20 19 93 1014 10 NE 13
Oggi h: 00:55 poco_nuvoloso Poco Nuvoloso 20 18 88 1014 10 NE 14.8
Ieri h: 23:55 sereno Sereno 20 19 93 1014 10 N/NE 13
Ieri h: 22:55 sereno Sereno 20 19 93 1014 10 NE 9.3
Ieri h: 21:55 nuvoloso Nuvoloso 20 19 93 1014 10 NE 13
Ieri h: 20:55 nuvoloso Nuvoloso 20 19 93 1014 10 N/NE 11.1
Ieri h: 19:55 nuvoloso Nuvoloso 20 19 93 1014 10 N/NE 9.3
Ieri h: 18:55 nuvoloso Nuvoloso 21 21 100 1014 10 N 7.4
Ieri h: 16:55 nuvoloso Nuvoloso 24 21 83 1014 10 S/SO 9.3